sensor_id;sensor_type;location;lat;lon;timestamp;P1;durP1;ratioP1;P2;durP2;ratioP2
2650;SDS011;1335;48.180;16.342;2024-02-28T00:01:22;3.90;;;3.60;;
2650;SDS011;1335;48.180;16.342;2024-02-28T00:03:50;4.30;;;3.77;;
2650;SDS011;1335;48.180;16.342;2024-02-28T00:06:17;7.00;;;4.30;;
2650;SDS011;1335;48.180;16.342;2024-02-28T00:08:45;3.60;;;3.20;;
2650;SDS011;1335;48.180;16.342;2024-02-28T00:11:14;7.13;;;4.20;;
2650;SDS011;1335;48.180;16.342;2024-02-28T00:13:41;7.90;;;3.93;;
2650;SDS011;1335;48.180;16.342;2024-02-28T00:16:09;6.87;;;4.50;;
2650;SDS011;1335;48.180;16.342;2024-02-28T00:18:36;4.20;;;3.73;;
2650;SDS011;1335;48.180;16.342;2024-02-28T00:21:04;5.40;;;3.70;;
2650;SDS011;1335;48.180;16.342;2024-02-28T00:23:31;8.13;;;3.60;;
2650;SDS011;1335;48.180;16.342;2024-02-28T00:25:58;6.00;;;3.80;;
2650;SDS011;1335;48.180;16.342;2024-02-28T00:28:28;4.07;;;3.67;;
2650;SDS011;1335;48.180;16.342;2024-02-28T00:30:55;4.47;;;3.70;;
2650;SDS011;1335;48.180;16.342;2024-02-28T00:33:22;4.23;;;3.33;;
2650;SDS011;1335;48.180;16.342;2024-02-28T00:35:50;5.90;;;3.90;;
2650;SDS011;1335;48.180;16.342;2024-02-28T00:38:19;5.97;;;3.70;;
2650;SDS011;1335;48.180;16.342;2024-02-28T00:40:46;6.00;;;3.10;;
2650;SDS011;1335;48.180;16.342;2024-02-28T00:43:13;6.90;;;3.63;;
2650;SDS011;1335;48.180;16.342;2024-02-28T00:45:42;5.00;;;3.50;;
2650;SDS011;1335;48.180;16.342;2024-02-28T00:48:09;6.60;;;4.13;;
2650;SDS011;1335;48.180;16.342;2024-02-28T00:50:37;3.77;;;3.37;;
2650;SDS011;1335;48.180;16.342;2024-02-28T00:53:04;4.60;;;3.63;;
2650;SDS011;1335;48.180;16.342;2024-02-28T00:55:31;4.73;;;3.33;;
2650;SDS011;1335;48.180;16.342;2024-02-28T00:57:59;6.87;;;3.60;;
2650;SDS011;1335;48.180;16.342;2024-02-28T01:00:26;5.60;;;3.57;;
2650;SDS011;1335;48.180;16.342;2024-02-28T01:02:55;4.07;;;3.33;;
2650;SDS011;1335;48.180;16.342;2024-02-28T01:05:22;5.00;;;3.20;;
2650;SDS011;1335;48.180;16.342;2024-02-28T01:07:49;5.53;;;2.60;;
2650;SDS011;1335;48.180;16.342;2024-02-28T01:10:17;2.83;;;2.53;;
2650;SDS011;1335;48.180;16.342;2024-02-28T01:12:44;3.27;;;2.87;;
2650;SDS011;1335;48.180;16.342;2024-02-28T01:15:11;5.57;;;3.30;;
2650;SDS011;1335;48.180;16.342;2024-02-28T01:17:38;7.20;;;3.33;;
2650;SDS011;1335;48.180;16.342;2024-02-28T01:20:08;4.53;;;3.03;;
2650;SDS011;1335;48.180;16.342;2024-02-28T01:22:35;4.33;;;3.20;;
2650;SDS011;1335;48.180;16.342;2024-02-28T01:25:02;5.03;;;3.40;;
2650;SDS011;1335;48.180;16.342;2024-02-28T01:27:30;3.73;;;3.20;;
2650;SDS011;1335;48.180;16.342;2024-02-28T01:29:57;3.80;;;3.10;;
2650;SDS011;1335;48.180;16.342;2024-02-28T01:32:24;5.83;;;3.50;;
2650;SDS011;1335;48.180;16.342;2024-02-28T01:34:52;5.73;;;3.67;;
2650;SDS011;1335;48.180;16.342;2024-02-28T01:37:20;5.37;;;3.70;;
2650;SDS011;1335;48.180;16.342;2024-02-28T01:39:48;7.40;;;3.63;;
2650;SDS011;1335;48.180;16.342;2024-02-28T01:42:15;4.63;;;3.30;;
2650;SDS011;1335;48.180;16.342;2024-02-28T01:44:44;5.97;;;3.90;;
2650;SDS011;1335;48.180;16.342;2024-02-28T01:47:11;4.20;;;2.70;;
2650;SDS011;1335;48.180;16.342;2024-02-28T01:49:39;3.30;;;2.93;;
2650;SDS011;1335;48.180;16.342;2024-02-28T01:52:06;3.90;;;2.87;;
2650;SDS011;1335;48.180;16.342;2024-02-28T01:54:35;5.90;;;3.63;;
2650;SDS011;1335;48.180;16.342;2024-02-28T01:57:03;3.70;;;2.53;;
2650;SDS011;1335;48.180;16.342;2024-02-28T01:59:30;4.10;;;2.93;;
2650;SDS011;1335;48.180;16.342;2024-02-28T02:01:58;4.70;;;3.47;;
2650;SDS011;1335;48.180;16.342;2024-02-28T02:04:25;4.50;;;2.60;;
2650;SDS011;1335;48.180;16.342;2024-02-28T02:06:53;9.40;;;3.50;;
2650;SDS011;1335;48.180;16.342;2024-02-28T02:09:23;5.57;;;3.30;;
2650;SDS011;1335;48.180;16.342;2024-02-28T02:11:52;3.60;;;3.30;;
2650;SDS011;1335;48.180;16.342;2024-02-28T02:14:19;2.63;;;2.43;;
2650;SDS011;1335;48.180;16.342;2024-02-28T02:16:46;4.63;;;3.20;;
2650;SDS011;1335;48.180;16.342;2024-02-28T02:19:14;3.63;;;2.70;;
2650;SDS011;1335;48.180;16.342;2024-02-28T02:21:43;5.30;;;2.47;;
2650;SDS011;1335;48.180;16.342;2024-02-28T02:24:15;6.37;;;3.30;;
2650;SDS011;1335;48.180;16.342;2024-02-28T02:26:42;6.53;;;3.37;;
2650;SDS011;1335;48.180;16.342;2024-02-28T02:29:11;3.50;;;2.37;;
2650;SDS011;1335;48.180;16.342;2024-02-28T02:31:39;4.10;;;2.23;;
2650;SDS011;1335;48.180;16.342;2024-02-28T02:34:06;3.33;;;2.83;;
2650;SDS011;1335;48.180;16.342;2024-02-28T02:36:34;5.50;;;3.20;;
2650;SDS011;1335;48.180;16.342;2024-02-28T02:39:01;5.27;;;2.80;;
2650;SDS011;1335;48.180;16.342;2024-02-28T02:41:30;6.27;;;2.70;;
2650;SDS011;1335;48.180;16.342;2024-02-28T02:43:57;3.80;;;2.47;;
2650;SDS011;1335;48.180;16.342;2024-02-28T02:46:24;5.00;;;2.97;;
2650;SDS011;1335;48.180;16.342;2024-02-28T02:48:52;3.87;;;2.63;;
2650;SDS011;1335;48.180;16.342;2024-02-28T02:51:19;3.73;;;2.87;;
2650;SDS011;1335;48.180;16.342;2024-02-28T02:53:46;2.60;;;2.33;;
2650;SDS011;1335;48.180;16.342;2024-02-28T02:56:14;5.37;;;2.70;;
2650;SDS011;1335;48.180;16.342;2024-02-28T02:58:42;3.20;;;2.50;;
2650;SDS011;1335;48.180;16.342;2024-02-28T03:01:10;3.70;;;2.67;;
2650;SDS011;1335;48.180;16.342;2024-02-28T03:03:37;3.87;;;2.40;;
2650;SDS011;1335;48.180;16.342;2024-02-28T03:06:04;4.20;;;2.60;;
2650;SDS011;1335;48.180;16.342;2024-02-28T03:08:32;3.53;;;2.77;;
2650;SDS011;1335;48.180;16.342;2024-02-28T03:10:59;4.63;;;3.27;;
2650;SDS011;1335;48.180;16.342;2024-02-28T03:13:29;6.17;;;3.47;;
2650;SDS011;1335;48.180;16.342;2024-02-28T03:15:58;5.83;;;3.43;;
2650;SDS011;1335;48.180;16.342;2024-02-28T03:18:25;4.60;;;3.03;;
2650;SDS011;1335;48.180;16.342;2024-02-28T03:20:52;6.33;;;3.80;;
2650;SDS011;1335;48.180;16.342;2024-02-28T03:23:20;5.10;;;4.00;;
2650;SDS011;1335;48.180;16.342;2024-02-28T03:25:47;5.17;;;4.20;;
2650;SDS011;1335;48.180;16.342;2024-02-28T03:28:14;8.53;;;5.43;;
2650;SDS011;1335;48.180;16.342;2024-02-28T03:30:42;7.07;;;4.83;;
2650;SDS011;1335;48.180;16.342;2024-02-28T03:33:10;7.07;;;5.47;;
2650;SDS011;1335;48.180;16.342;2024-02-28T03:35:38;9.03;;;6.90;;
2650;SDS011;1335;48.180;16.342;2024-02-28T03:38:05;7.97;;;6.40;;
2650;SDS011;1335;48.180;16.342;2024-02-28T03:40:32;8.67;;;7.30;;
2650;SDS011;1335;48.180;16.342;2024-02-28T03:43:00;8.77;;;7.87;;
2650;SDS011;1335;48.180;16.342;2024-02-28T03:45:28;9.63;;;8.63;;
2650;SDS011;1335;48.180;16.342;2024-02-28T03:47:55;12.50;;;9.80;;
2650;SDS011;1335;48.180;16.342;2024-02-28T03:50:24;10.77;;;9.67;;
2650;SDS011;1335;48.180;16.342;2024-02-28T03:52:51;10.13;;;9.10;;
2650;SDS011;1335;48.180;16.342;2024-02-28T03:55:19;12.50;;;10.30;;
2650;SDS011;1335;48.180;16.342;2024-02-28T03:57:46;11.10;;;10.00;;
2650;SDS011;1335;48.180;16.342;2024-02-28T04:00:17;16.10;;;11.03;;
2650;SDS011;1335;48.180;16.342;2024-02-28T04:02:44;12.30;;;11.00;;
2650;SDS011;1335;48.180;16.342;2024-02-28T04:05:11;13.53;;;11.40;;
2650;SDS011;1335;48.180;16.342;2024-02-28T04:07:40;12.93;;;10.70;;
2650;SDS011;1335;48.180;16.342;2024-02-28T04:10:08;13.83;;;11.60;;
2650;SDS011;1335;48.180;16.342;2024-02-28T04:12:36;13.60;;;11.97;;
2650;SDS011;1335;48.180;16.342;2024-02-28T04:15:04;13.00;;;11.63;;
2650;SDS011;1335;48.180;16.342;2024-02-28T04:17:31;13.47;;;12.03;;
2650;SDS011;1335;48.180;16.342;2024-02-28T04:19:58;14.93;;;12.60;;
2650;SDS011;1335;48.180;16.342;2024-02-28T04:22:29;12.60;;;11.30;;
2650;SDS011;1335;48.180;16.342;2024-02-28T04:24:59;14.03;;;12.20;;
2650;SDS011;1335;48.180;16.342;2024-02-28T04:27:26;14.10;;;12.60;;
2650;SDS011;1335;48.180;16.342;2024-02-28T04:29:53;17.33;;;13.87;;
2650;SDS011;1335;48.180;16.342;2024-02-28T04:32:21;14.67;;;13.10;;
2650;SDS011;1335;48.180;16.342;2024-02-28T04:34:48;17.47;;;14.33;;
2650;SDS011;1335;48.180;16.342;2024-02-28T04:37:15;16.07;;;13.97;;
2650;SDS011;1335;48.180;16.342;2024-02-28T04:39:42;17.07;;;14.23;;
2650;SDS011;1335;48.180;16.342;2024-02-28T04:42:12;16.40;;;13.67;;
2650;SDS011;1335;48.180;16.342;2024-02-28T04:44:39;16.40;;;14.23;;
2650;SDS011;1335;48.180;16.342;2024-02-28T04:47:07;17.17;;;13.90;;
2650;SDS011;1335;48.180;16.342;2024-02-28T04:49:36;17.50;;;15.27;;
2650;SDS011;1335;48.180;16.342;2024-02-28T04:52:04;18.37;;;14.00;;
2650;SDS011;1335;48.180;16.342;2024-02-28T04:54:31;16.77;;;14.10;;
2650;SDS011;1335;48.180;16.342;2024-02-28T04:56:59;16.67;;;14.27;;
2650;SDS011;1335;48.180;16.342;2024-02-28T04:59:29;18.50;;;15.07;;
2650;SDS011;1335;48.180;16.342;2024-02-28T05:01:57;18.27;;;14.67;;
2650;SDS011;1335;48.180;16.342;2024-02-28T05:04:24;22.13;;;14.30;;
2650;SDS011;1335;48.180;16.342;2024-02-28T05:06:51;19.47;;;14.37;;
2650;SDS011;1335;48.180;16.342;2024-02-28T05:09:19;20.90;;;16.60;;
2650;SDS011;1335;48.180;16.342;2024-02-28T05:11:46;19.93;;;15.87;;
2650;SDS011;1335;48.180;16.342;2024-02-28T05:14:13;19.37;;;15.47;;
2650;SDS011;1335;48.180;16.342;2024-02-28T05:16:42;20.13;;;16.03;;
2650;SDS011;1335;48.180;16.342;2024-02-28T05:19:11;20.20;;;16.60;;
2650;SDS011;1335;48.180;16.342;2024-02-28T05:21:41;21.40;;;16.57;;
2650;SDS011;1335;48.180;16.342;2024-02-28T05:24:08;20.10;;;15.23;;
2650;SDS011;1335;48.180;16.342;2024-02-28T05:26:36;16.53;;;14.67;;
2650;SDS011;1335;48.180;16.342;2024-02-28T05:29:03;19.50;;;17.07;;
2650;SDS011;1335;48.180;16.342;2024-02-28T05:31:31;21.60;;;17.23;;
2650;SDS011;1335;48.180;16.342;2024-02-28T05:34:00;18.67;;;15.73;;
2650;SDS011;1335;48.180;16.342;2024-02-28T05:36:28;20.70;;;16.13;;
2650;SDS011;1335;48.180;16.342;2024-02-28T05:38:56;21.40;;;17.43;;
2650;SDS011;1335;48.180;16.342;2024-02-28T05:41:24;20.83;;;15.47;;
2650;SDS011;1335;48.180;16.342;2024-02-28T05:43:51;20.30;;;16.60;;
2650;SDS011;1335;48.180;16.342;2024-02-28T05:46:18;19.23;;;17.17;;
2650;SDS011;1335;48.180;16.342;2024-02-28T05:48:47;21.20;;;17.63;;
2650;SDS011;1335;48.180;16.342;2024-02-28T05:51:16;21.10;;;16.40;;
2650;SDS011;1335;48.180;16.342;2024-02-28T05:53:43;21.97;;;17.03;;
2650;SDS011;1335;48.180;16.342;2024-02-28T05:56:10;20.07;;;16.40;;
2650;SDS011;1335;48.180;16.342;2024-02-28T05:58:39;18.70;;;16.60;;
2650;SDS011;1335;48.180;16.342;2024-02-28T06:01:08;21.10;;;17.53;;
2650;SDS011;1335;48.180;16.342;2024-02-28T06:03:35;20.20;;;18.10;;
2650;SDS011;1335;48.180;16.342;2024-02-28T06:06:03;19.83;;;16.50;;
2650;SDS011;1335;48.180;16.342;2024-02-28T06:08:33;20.70;;;17.13;;
2650;SDS011;1335;48.180;16.342;2024-02-28T06:11:01;20.13;;;16.20;;
2650;SDS011;1335;48.180;16.342;2024-02-28T06:13:28;23.70;;;18.40;;
2650;SDS011;1335;48.180;16.342;2024-02-28T06:15:55;23.00;;;17.23;;
2650;SDS011;1335;48.180;16.342;2024-02-28T06:18:23;24.50;;;18.50;;
2650;SDS011;1335;48.180;16.342;2024-02-28T06:20:52;21.00;;;17.13;;
2650;SDS011;1335;48.180;16.342;2024-02-28T06:23:20;23.17;;;17.50;;
2650;SDS011;1335;48.180;16.342;2024-02-28T06:25:49;21.57;;;17.03;;
2650;SDS011;1335;48.180;16.342;2024-02-28T06:28:16;24.50;;;17.93;;
2650;SDS011;1335;48.180;16.342;2024-02-28T06:30:44;20.27;;;17.57;;
2650;SDS011;1335;48.180;16.342;2024-02-28T06:33:11;21.03;;;17.13;;
2650;SDS011;1335;48.180;16.342;2024-02-28T06:35:39;17.63;;;15.20;;
2650;SDS011;1335;48.180;16.342;2024-02-28T06:38:07;23.10;;;16.73;;
2650;SDS011;1335;48.180;16.342;2024-02-28T06:40:34;22.07;;;17.50;;
2650;SDS011;1335;48.180;16.342;2024-02-28T06:43:03;24.73;;;18.37;;
2650;SDS011;1335;48.180;16.342;2024-02-28T06:45:31;21.03;;;17.80;;
2650;SDS011;1335;48.180;16.342;2024-02-28T06:47:58;20.23;;;16.40;;
2650;SDS011;1335;48.180;16.342;2024-02-28T06:50:25;22.97;;;18.37;;
2650;SDS011;1335;48.180;16.342;2024-02-28T06:52:53;24.90;;;17.50;;
2650;SDS011;1335;48.180;16.342;2024-02-28T06:55:20;22.60;;;17.20;;
2650;SDS011;1335;48.180;16.342;2024-02-28T06:57:47;21.53;;;17.50;;
2650;SDS011;1335;48.180;16.342;2024-02-28T07:00:16;21.07;;;17.77;;
2650;SDS011;1335;48.180;16.342;2024-02-28T07:02:44;19.70;;;16.97;;
2650;SDS011;1335;48.180;16.342;2024-02-28T07:05:12;20.17;;;16.43;;
2650;SDS011;1335;48.180;16.342;2024-02-28T07:07:39;24.60;;;18.60;;
2650;SDS011;1335;48.180;16.342;2024-02-28T07:10:07;21.20;;;17.10;;
2650;SDS011;1335;48.180;16.342;2024-02-28T07:12:34;23.90;;;16.83;;
2650;SDS011;1335;48.180;16.342;2024-02-28T07:15:02;23.27;;;18.03;;
2650;SDS011;1335;48.180;16.342;2024-02-28T07:17:31;22.77;;;18.40;;
2650;SDS011;1335;48.180;16.342;2024-02-28T07:19:58;22.70;;;17.40;;
2650;SDS011;1335;48.180;16.342;2024-02-28T07:22:26;25.57;;;17.93;;
2650;SDS011;1335;48.180;16.342;2024-02-28T07:24:53;18.83;;;16.73;;
2650;SDS011;1335;48.180;16.342;2024-02-28T07:27:21;22.13;;;18.37;;
2650;SDS011;1335;48.180;16.342;2024-02-28T07:29:49;21.90;;;15.90;;
2650;SDS011;1335;48.180;16.342;2024-02-28T07:32:16;24.57;;;17.83;;
2650;SDS011;1335;48.180;16.342;2024-02-28T07:34:45;21.40;;;17.90;;
2650;SDS011;1335;48.180;16.342;2024-02-28T07:37:12;21.73;;;17.80;;
2650;SDS011;1335;48.180;16.342;2024-02-28T07:39:40;24.80;;;19.00;;
2650;SDS011;1335;48.180;16.342;2024-02-28T07:42:07;20.80;;;17.70;;
2650;SDS011;1335;48.180;16.342;2024-02-28T07:44:34;23.87;;;18.07;;
2650;SDS011;1335;48.180;16.342;2024-02-28T07:47:02;22.43;;;17.60;;
2650;SDS011;1335;48.180;16.342;2024-02-28T07:49:29;22.97;;;18.83;;
2650;SDS011;1335;48.180;16.342;2024-02-28T07:51:58;23.00;;;18.00;;
2650;SDS011;1335;48.180;16.342;2024-02-28T07:54:25;22.00;;;17.40;;
2650;SDS011;1335;48.180;16.342;2024-02-28T07:56:53;21.23;;;17.10;;
2650;SDS011;1335;48.180;16.342;2024-02-28T07:59:20;23.73;;;17.57;;
2650;SDS011;1335;48.180;16.342;2024-02-28T08:01:48;21.40;;;17.80;;
2650;SDS011;1335;48.180;16.342;2024-02-28T08:04:15;22.03;;;17.93;;
2650;SDS011;1335;48.180;16.342;2024-02-28T08:06:43;21.37;;;17.50;;
2650;SDS011;1335;48.180;16.342;2024-02-28T08:09:11;20.80;;;18.20;;
2650;SDS011;1335;48.180;16.342;2024-02-28T08:11:40;21.63;;;17.10;;
2650;SDS011;1335;48.180;16.342;2024-02-28T08:14:07;21.20;;;16.87;;
2650;SDS011;1335;48.180;16.342;2024-02-28T08:16:35;19.90;;;17.80;;
2650;SDS011;1335;48.180;16.342;2024-02-28T08:19:02;20.67;;;17.70;;
2650;SDS011;1335;48.180;16.342;2024-02-28T08:21:30;19.57;;;17.47;;
2650;SDS011;1335;48.180;16.342;2024-02-28T08:23:57;19.07;;;17.07;;
2650;SDS011;1335;48.180;16.342;2024-02-28T08:26:26;20.43;;;17.30;;
2650;SDS011;1335;48.180;16.342;2024-02-28T08:28:53;19.30;;;17.40;;
2650;SDS011;1335;48.180;16.342;2024-02-28T08:31:20;19.17;;;17.17;;
2650;SDS011;1335;48.180;16.342;2024-02-28T08:33:48;19.33;;;17.00;;
2650;SDS011;1335;48.180;16.342;2024-02-28T08:36:15;20.90;;;16.33;;
2650;SDS011;1335;48.180;16.342;2024-02-28T08:38:42;21.70;;;18.23;;
2650;SDS011;1335;48.180;16.342;2024-02-28T08:41:10;20.57;;;17.50;;
2650;SDS011;1335;48.180;16.342;2024-02-28T08:43:39;19.93;;;17.17;;
2650;SDS011;1335;48.180;16.342;2024-02-28T08:46:06;20.07;;;17.07;;
2650;SDS011;1335;48.180;16.342;2024-02-28T08:48:34;17.90;;;15.50;;
2650;SDS011;1335;48.180;16.342;2024-02-28T08:51:02;21.40;;;17.10;;
2650;SDS011;1335;48.180;16.342;2024-02-28T08:53:30;18.37;;;16.50;;
2650;SDS011;1335;48.180;16.342;2024-02-28T08:55:57;19.73;;;17.60;;
2650;SDS011;1335;48.180;16.342;2024-02-28T08:58:25;24.73;;;16.43;;
2650;SDS011;1335;48.180;16.342;2024-02-28T09:00:53;18.80;;;16.83;;
2650;SDS011;1335;48.180;16.342;2024-02-28T09:03:21;20.00;;;16.10;;
2650;SDS011;1335;48.180;16.342;2024-02-28T09:05:48;18.17;;;16.33;;
2650;SDS011;1335;48.180;16.342;2024-02-28T09:08:16;18.83;;;16.83;;
2650;SDS011;1335;48.180;16.342;2024-02-28T09:10:43;18.33;;;15.83;;
2650;SDS011;1335;48.180;16.342;2024-02-28T09:13:11;19.97;;;17.90;;
2650;SDS011;1335;48.180;16.342;2024-02-28T09:15:39;21.33;;;16.67;;
2650;SDS011;1335;48.180;16.342;2024-02-28T09:18:08;18.17;;;15.70;;
2650;SDS011;1335;48.180;16.342;2024-02-28T09:20:35;20.43;;;16.73;;
2650;SDS011;1335;48.180;16.342;2024-02-28T09:23:03;19.43;;;16.70;;
2650;SDS011;1335;48.180;16.342;2024-02-28T09:25:32;17.90;;;15.43;;
2650;SDS011;1335;48.180;16.342;2024-02-28T09:28:00;26.23;;;17.07;;
2650;SDS011;1335;48.180;16.342;2024-02-28T09:30:27;18.53;;;15.77;;
2650;SDS011;1335;48.180;16.342;2024-02-28T09:32:55;18.80;;;17.00;;
2650;SDS011;1335;48.180;16.342;2024-02-28T09:35:23;18.70;;;16.70;;
2650;SDS011;1335;48.180;16.342;2024-02-28T09:37:51;19.47;;;16.20;;
2650;SDS011;1335;48.180;16.342;2024-02-28T09:40:18;21.17;;;18.80;;
2650;SDS011;1335;48.180;16.342;2024-02-28T09:42:47;23.20;;;18.00;;
2650;SDS011;1335;48.180;16.342;2024-02-28T09:45:17;20.30;;;17.47;;
2650;SDS011;1335;48.180;16.342;2024-02-28T09:47:44;18.20;;;16.30;;
2650;SDS011;1335;48.180;16.342;2024-02-28T09:50:12;20.13;;;18.10;;
2650;SDS011;1335;48.180;16.342;2024-02-28T09:52:41;20.30;;;17.13;;
2650;SDS011;1335;48.180;16.342;2024-02-28T09:55:08;21.53;;;17.17;;
2650;SDS011;1335;48.180;16.342;2024-02-28T09:57:35;18.73;;;16.60;;
2650;SDS011;1335;48.180;16.342;2024-02-28T10:00:04;21.07;;;17.03;;
2650;SDS011;1335;48.180;16.342;2024-02-28T10:02:31;21.90;;;16.67;;
2650;SDS011;1335;48.180;16.342;2024-02-28T10:04:59;19.07;;;16.97;;
2650;SDS011;1335;48.180;16.342;2024-02-28T10:07:29;18.57;;;16.67;;
2650;SDS011;1335;48.180;16.342;2024-02-28T10:09:57;19.23;;;17.33;;
2650;SDS011;1335;48.180;16.342;2024-02-28T10:12:25;19.50;;;17.60;;
2650;SDS011;1335;48.180;16.342;2024-02-28T10:14:52;18.03;;;16.20;;
2650;SDS011;1335;48.180;16.342;2024-02-28T10:17:19;19.20;;;17.30;;
2650;SDS011;1335;48.180;16.342;2024-02-28T10:19:47;20.43;;;17.53;;
2650;SDS011;1335;48.180;16.342;2024-02-28T10:22:14;18.73;;;16.60;;
2650;SDS011;1335;48.180;16.342;2024-02-28T10:24:41;18.57;;;16.80;;
2650;SDS011;1335;48.180;16.342;2024-02-28T10:27:10;18.10;;;16.23;;
2650;SDS011;1335;48.180;16.342;2024-02-28T10:29:44;17.47;;;15.97;;
2650;SDS011;1335;48.180;16.342;2024-02-28T10:32:11;18.70;;;16.90;;
2650;SDS011;1335;48.180;16.342;2024-02-28T10:34:39;18.83;;;17.10;;
2650;SDS011;1335;48.180;16.342;2024-02-28T10:37:07;19.30;;;17.40;;
2650;SDS011;1335;48.180;16.342;2024-02-28T10:39:34;17.70;;;16.00;;
2650;SDS011;1335;48.180;16.342;2024-02-28T10:42:03;20.00;;;17.90;;
2650;SDS011;1335;48.180;16.342;2024-02-28T10:44:32;19.37;;;17.63;;
2650;SDS011;1335;48.180;16.342;2024-02-28T10:47:02;18.63;;;16.83;;
2650;SDS011;1335;48.180;16.342;2024-02-28T10:49:29;20.20;;;18.27;;
2650;SDS011;1335;48.180;16.342;2024-02-28T10:51:56;20.40;;;18.40;;
2650;SDS011;1335;48.180;16.342;2024-02-28T10:54:26;18.90;;;17.00;;
2650;SDS011;1335;48.180;16.342;2024-02-28T10:56:56;19.40;;;17.50;;
2650;SDS011;1335;48.180;16.342;2024-02-28T10:59:25;17.80;;;16.00;;
2650;SDS011;1335;48.180;16.342;2024-02-28T11:01:54;19.63;;;17.60;;
2650;SDS011;1335;48.180;16.342;2024-02-28T11:04:21;18.93;;;17.00;;
2650;SDS011;1335;48.180;16.342;2024-02-28T11:06:49;20.10;;;18.10;;
2650;SDS011;1335;48.180;16.342;2024-02-28T11:09:20;18.60;;;16.83;;
2650;SDS011;1335;48.180;16.342;2024-02-28T11:11:52;19.10;;;17.27;;
2650;SDS011;1335;48.180;16.342;2024-02-28T11:14:20;18.87;;;17.07;;
2650;SDS011;1335;48.180;16.342;2024-02-28T11:17:00;19.17;;;17.37;;
2650;SDS011;1335;48.180;16.342;2024-02-28T11:19:28;18.33;;;16.73;;
2650;SDS011;1335;48.180;16.342;2024-02-28T11:21:56;20.30;;;18.20;;
2650;SDS011;1335;48.180;16.342;2024-02-28T11:24:24;18.17;;;16.53;;
2650;SDS011;1335;48.180;16.342;2024-02-28T11:26:51;18.80;;;17.07;;
2650;SDS011;1335;48.180;16.342;2024-02-28T11:29:22;21.80;;;18.43;;
2650;SDS011;1335;48.180;16.342;2024-02-28T11:31:50;17.77;;;15.97;;
2650;SDS011;1335;48.180;16.342;2024-02-28T11:34:18;19.70;;;17.90;;
2650;SDS011;1335;48.180;16.342;2024-02-28T11:36:47;17.97;;;16.17;;
2650;SDS011;1335;48.180;16.342;2024-02-28T11:39:15;20.33;;;18.30;;
2650;SDS011;1335;48.180;16.342;2024-02-28T11:41:42;20.70;;;18.70;;
2650;SDS011;1335;48.180;16.342;2024-02-28T11:44:11;19.70;;;17.70;;
2650;SDS011;1335;48.180;16.342;2024-02-28T11:46:42;19.97;;;18.27;;
2650;SDS011;1335;48.180;16.342;2024-02-28T11:49:10;18.57;;;16.77;;
2650;SDS011;1335;48.180;16.342;2024-02-28T11:51:40;20.40;;;18.40;;
2650;SDS011;1335;48.180;16.342;2024-02-28T11:54:08;22.20;;;18.63;;
2650;SDS011;1335;48.180;16.342;2024-02-28T11:56:36;21.10;;;18.90;;
2650;SDS011;1335;48.180;16.342;2024-02-28T11:59:04;21.27;;;19.00;;
2650;SDS011;1335;48.180;16.342;2024-02-28T12:01:34;20.50;;;18.50;;
2650;SDS011;1335;48.180;16.342;2024-02-28T12:04:02;19.57;;;17.57;;
2650;SDS011;1335;48.180;16.342;2024-02-28T12:06:30;21.73;;;18.77;;
2650;SDS011;1335;48.180;16.342;2024-02-28T12:08:59;19.13;;;17.23;;
2650;SDS011;1335;48.180;16.342;2024-02-28T12:11:27;24.37;;;19.57;;
2650;SDS011;1335;48.180;16.342;2024-02-28T12:13:56;20.30;;;18.17;;
2650;SDS011;1335;48.180;16.342;2024-02-28T12:16:24;21.13;;;19.13;;
2650;SDS011;1335;48.180;16.342;2024-02-28T12:18:52;19.50;;;17.50;;
2650;SDS011;1335;48.180;16.342;2024-02-28T12:21:20;19.80;;;17.77;;
2650;SDS011;1335;48.180;16.342;2024-02-28T12:23:47;19.97;;;17.90;;
2650;SDS011;1335;48.180;16.342;2024-02-28T12:26:17;19.43;;;17.43;;
2650;SDS011;1335;48.180;16.342;2024-02-28T12:28:45;20.13;;;18.10;;
2650;SDS011;1335;48.180;16.342;2024-02-28T12:31:12;19.57;;;17.57;;
2650;SDS011;1335;48.180;16.342;2024-02-28T12:33:39;18.10;;;16.40;;
2650;SDS011;1335;48.180;16.342;2024-02-28T12:36:07;19.23;;;17.03;;
2650;SDS011;1335;48.180;16.342;2024-02-28T12:38:35;18.37;;;16.57;;
2650;SDS011;1335;48.180;16.342;2024-02-28T12:41:03;18.50;;;16.60;;
2650;SDS011;1335;48.180;16.342;2024-02-28T12:43:31;20.90;;;16.77;;
2650;SDS011;1335;48.180;16.342;2024-02-28T12:45:59;19.83;;;17.70;;
2650;SDS011;1335;48.180;16.342;2024-02-28T12:48:27;19.60;;;17.50;;
2650;SDS011;1335;48.180;16.342;2024-02-28T12:50:54;19.33;;;17.53;;
2650;SDS011;1335;48.180;16.342;2024-02-28T12:53:21;19.30;;;16.97;;
2650;SDS011;1335;48.180;16.342;2024-02-28T12:55:48;18.60;;;16.73;;
2650;SDS011;1335;48.180;16.342;2024-02-28T12:58:15;18.63;;;16.40;;
2650;SDS011;1335;48.180;16.342;2024-02-28T13:00:44;20.77;;;18.53;;
2650;SDS011;1335;48.180;16.342;2024-02-28T13:03:11;19.03;;;17.23;;
2650;SDS011;1335;48.180;16.342;2024-02-28T13:05:40;19.73;;;17.73;;
2650;SDS011;1335;48.180;16.342;2024-02-28T13:08:07;19.13;;;17.23;;
2650;SDS011;1335;48.180;16.342;2024-02-28T13:10:34;20.97;;;18.77;;
2650;SDS011;1335;48.180;16.342;2024-02-28T13:13:06;19.77;;;17.53;;
2650;SDS011;1335;48.180;16.342;2024-02-28T13:15:33;18.70;;;16.80;;
2650;SDS011;1335;48.180;16.342;2024-02-28T13:18:02;19.43;;;17.53;;
2650;SDS011;1335;48.180;16.342;2024-02-28T13:20:33;20.47;;;16.67;;
2650;SDS011;1335;48.180;16.342;2024-02-28T13:23:00;18.70;;;16.90;;
2650;SDS011;1335;48.180;16.342;2024-02-28T13:25:27;19.63;;;17.57;;
2650;SDS011;1335;48.180;16.342;2024-02-28T13:27:55;18.80;;;16.90;;
2650;SDS011;1335;48.180;16.342;2024-02-28T13:30:22;18.23;;;16.40;;
2650;SDS011;1335;48.180;16.342;2024-02-28T13:32:50;20.30;;;16.30;;
2650;SDS011;1335;48.180;16.342;2024-02-28T13:35:19;18.73;;;16.73;;
2650;SDS011;1335;48.180;16.342;2024-02-28T13:37:46;20.03;;;17.93;;
2650;SDS011;1335;48.180;16.342;2024-02-28T13:40:13;20.33;;;17.00;;
2650;SDS011;1335;48.180;16.342;2024-02-28T13:42:41;18.57;;;16.67;;
2650;SDS011;1335;48.180;16.342;2024-02-28T13:45:10;18.70;;;16.70;;
2650;SDS011;1335;48.180;16.342;2024-02-28T13:47:38;19.27;;;16.00;;
2650;SDS011;1335;48.180;16.342;2024-02-28T13:50:05;19.80;;;17.17;;
2650;SDS011;1335;48.180;16.342;2024-02-28T13:52:36;20.53;;;17.13;;
2650;SDS011;1335;48.180;16.342;2024-02-28T13:55:03;20.07;;;16.23;;
2650;SDS011;1335;48.180;16.342;2024-02-28T13:57:31;17.80;;;15.90;;
2650;SDS011;1335;48.180;16.342;2024-02-28T13:59:58;22.90;;;16.60;;
2650;SDS011;1335;48.180;16.342;2024-02-28T14:02:25;19.67;;;17.50;;
2650;SDS011;1335;48.180;16.342;2024-02-28T14:04:53;20.20;;;16.77;;
2650;SDS011;1335;48.180;16.342;2024-02-28T14:07:21;18.13;;;16.27;;
2650;SDS011;1335;48.180;16.342;2024-02-28T14:09:49;19.83;;;17.20;;
2650;SDS011;1335;48.180;16.342;2024-02-28T14:12:17;18.73;;;16.70;;
2650;SDS011;1335;48.180;16.342;2024-02-28T14:14:44;22.70;;;18.50;;
2650;SDS011;1335;48.180;16.342;2024-02-28T14:17:11;21.47;;;17.33;;
2650;SDS011;1335;48.180;16.342;2024-02-28T14:19:39;18.60;;;16.53;;
2650;SDS011;1335;48.180;16.342;2024-02-28T14:22:06;17.90;;;15.80;;
2650;SDS011;1335;48.180;16.342;2024-02-28T14:24:35;18.37;;;16.37;;
2650;SDS011;1335;48.180;16.342;2024-02-28T14:27:05;20.13;;;16.63;;
2650;SDS011;1335;48.180;16.342;2024-02-28T14:29:33;19.57;;;16.90;;
2650;SDS011;1335;48.180;16.342;2024-02-28T14:32:00;23.60;;;17.00;;
2650;SDS011;1335;48.180;16.342;2024-02-28T14:34:27;17.20;;;15.00;;
2650;SDS011;1335;48.180;16.342;2024-02-28T14:36:57;20.83;;;15.93;;
2650;SDS011;1335;48.180;16.342;2024-02-28T14:39:24;20.10;;;16.20;;
2650;SDS011;1335;48.180;16.342;2024-02-28T14:41:51;18.70;;;16.20;;
2650;SDS011;1335;48.180;16.342;2024-02-28T14:44:21;18.10;;;15.80;;